Rechercher aéroport 
image banner adimage banner ad
image banner ad

SVAL - Agualinda

Situé à Barinas, Venezuela

ICAO - SVAL, IATA -

Données fournies par Airmate  

Information générale

Coordonnées: N7°38'6" W70°51'0"
Élévation : 574 feet MSL.
 
Voir autres Aéroports à Barinas

Données opérationnelles

Accessible au public
Heure actuelle UTC:
Heure actuelle locale:
METAR: SVGD 310402Z AUTO 31001KT NCD 26/25 Q1010
Voir NOTAMs / SUP AIP / TFR affectant cet aéroport [VIEW]
Fréquences de communication: [VIEW]

Pistes:

Identifiant RWYQFULongueur (ft)Largeur (ft)SurfaceLDA (ft)
1800
3600

Coordonnées de l'aéroport

Adresse: Barinas Venezuela

Vue satellite de SVAL